BIRK/RKV METAR and TAF weather

Enter ICAO airport designator
Station Type Date Time Source
BIRK METAR 2021/03/05 01:00 UTC NOAA

BIRK 050100Z 10005KT 9999 -DZ OVC019 04/01 Q1030


Station Type Date Time Source
BIRK Decoded METAR 2021/03/05 01:00 UTC NOAA

Reykjavik, Iceland (BIRK) 64-08N 021-54W 61M
Mar 04, 2021 - 08:00 PM EST / 2021.03.05 0100 UTC
Wind: from the E (100 degrees) at 6 MPH (5 KT):0
Visibility: greater than 7 mile(s):0
Sky conditions: overcast
Weather: light drizzle
Temperature: 39 F (4 C)
Dew Point: 33 F (1 C)
Relative Humidity: 80%
Pressure (altimeter): 30.42 in. Hg (1030 hPa)
ob: BIRK 050100Z 10005KT 9999 -DZ OVC019 04/01 Q1030
cycle: 1

Station Type Date Time Source
BIRK TAF 2021/03/05 03:08 UTC NOAA

TAF BIRK 050103Z 0503/0603 12010KT 9999 -RA FEW015 SCT022 BKN028 TX07/0515Z TN02/0506Z
BECMG 0522/0600 7000 RADZ BKN012 OVC018

Example: see airport list